Time;durP1;ratioP1;P1;durP2;ratioP2;P2;SDS_P1;SDS_P2;PMS_P1;PMS_P2;Temp;Humidity;BMP_temperature;BMP_pressure;BME280_temperature;BME280_humidity;BME280_pressure;Samples;Min_cycle;Max_cycle;Signal;HPM_P1;HPM_P2
2020/12/14 00:01:04;;;;;;;4.30;1.42;;;7.20;99.90;;;;;;5091099;28;20027;-69
2020/12/14 00:03:32;;;;;;;8.98;2.65;;;7.30;99.90;;;;;;5090729;28;20067;-69
2020/12/14 00:05:57;;;;;;;7.13;1.67;;;7.30;99.90;;;;;;5090318;28;20039;-69
2020/12/14 00:08:23;;;;;;;7.95;1.67;;;7.30;99.90;;;;;;5090482;28;20036;-69
2020/12/14 00:10:49;;;;;;;5.50;1.50;;;7.30;99.90;;;;;;5091371;28;20107;-69
2020/12/14 00:13:14;;;;;;;5.68;1.95;;;7.30;99.90;;;;;;5089085;28;20421;-68
2020/12/14 00:15:40;;;;;;;4.47;1.75;;;7.30;99.90;;;;;;5091226;28;20443;-68
2020/12/14 00:18:05;;;;;;;5.40;1.52;;;7.30;99.90;;;;;;5091055;28;20031;-68
2020/12/14 00:20:31;;;;;;;7.75;1.65;;;7.30;99.90;;;;;;5089907;28;20047;-67
2020/12/14 00:22:56;;;;;;;5.57;1.48;;;7.30;99.90;;;;;;5091289;28;20032;-70
2020/12/14 00:25:22;;;;;;;5.07;1.60;;;7.40;99.90;;;;;;5090615;28;20020;-69
2020/12/14 00:27:47;;;;;;;4.30;1.40;;;7.40;99.90;;;;;;5090402;28;20443;-69
2020/12/14 00:30:13;;;;;;;11.88;1.85;;;7.40;99.90;;;;;;5090310;28;20502;-68
2020/12/14 00:32:38;;;;;;;2.88;1.85;;;7.40;99.90;;;;;;5091110;28;20024;-69
2020/12/14 00:35:04;;;;;;;4.85;1.75;;;7.40;99.90;;;;;;5090180;28;20051;-70
2020/12/14 00:37:30;;;;;;;4.90;1.55;;;7.40;99.90;;;;;;5090354;28;20137;-70
2020/12/14 00:39:55;;;;;;;6.55;2.22;;;7.40;99.90;;;;;;5090929;28;20012;-69
2020/12/14 00:42:21;;;;;;;2.67;1.30;;;7.40;99.90;;;;;;5089767;28;20514;-69
2020/12/14 00:44:47;;;;;;;6.13;1.63;;;7.50;99.90;;;;;;5090981;28;20198;-67
2020/12/14 00:47:12;;;;;;;3.55;1.42;;;7.50;99.90;;;;;;5090641;28;20107;-68
2020/12/14 00:49:38;;;;;;;2.40;1.23;;;7.50;99.90;;;;;;5090223;28;20520;-68
2020/12/14 00:52:04;;;;;;;5.50;1.85;;;7.50;99.90;;;;;;5090660;28;20035;-68
2020/12/14 00:54:31;;;;;;;3.50;1.45;;;7.50;99.90;;;;;;5090421;28;20016;-68
2020/12/14 00:56:57;;;;;;;2.75;1.52;;;7.60;99.90;;;;;;5083552;28;20024;-68
2020/12/14 00:59:22;;;;;;;2.00;1.30;;;7.60;99.90;;;;;;5083636;28;20062;-68
2020/12/14 01:01:54;;;;;;;3.55;1.45;;;7.60;99.90;;;;;;5090316;28;20310;-68
2020/12/14 01:04:20;;;;;;;6.28;1.38;;;7.60;99.90;;;;;;5090553;28;20024;-68
2020/12/14 01:06:50;;;;;;;6.10;1.58;;;7.70;99.90;;;;;;5090379;28;20044;-68
2020/12/14 01:09:15;;;;;;;6.82;1.50;;;7.70;99.90;;;;;;5089342;28;20028;-68
2020/12/14 01:11:41;;;;;;;7.10;1.85;;;7.70;99.90;;;;;;5090646;28;20020;-68
2020/12/14 01:14:06;;;;;;;4.22;1.50;;;7.70;99.90;;;;;;5090393;28;20020;-68
2020/12/14 01:16:32;;;;;;;4.00;1.95;;;7.80;99.90;;;;;;5089613;28;20089;-68
2020/12/14 01:18:57;;;;;;;7.80;1.98;;;7.70;99.90;;;;;;5090366;28;20027;-67
2020/12/14 01:21:23;;;;;;;5.28;1.52;;;7.80;99.90;;;;;;5090241;28;20430;-68
2020/12/14 01:23:50;;;;;;;5.03;1.30;;;7.80;99.90;;;;;;5090714;28;20471;-67
2020/12/14 01:26:16;;;;;;;2.78;1.45;;;7.80;99.90;;;;;;5094106;28;20027;-68
2020/12/14 01:28:41;;;;;;;1.88;1.30;;;7.80;99.90;;;;;;5091707;28;20069;-68
2020/12/14 01:31:07;;;;;;;1.67;1.10;;;7.80;99.90;;;;;;5073221;28;20005;-68
2020/12/14 01:33:32;;;;;;;6.80;1.20;;;7.80;99.90;;;;;;5073367;28;20031;-68
2020/12/14 01:35:58;;;;;;;2.75;1.17;;;7.90;99.90;;;;;;5073513;28;20024;-68
2020/12/14 01:38:23;;;;;;;3.17;1.10;;;7.90;99.90;;;;;;5072787;28;20021;-68
2020/12/14 01:40:49;;;;;;;2.97;1.35;;;7.80;99.90;;;;;;5073296;28;20016;-68
2020/12/14 01:43:14;;;;;;;4.43;1.20;;;7.80;99.90;;;;;;5073006;28;20037;-68
2020/12/14 01:45:40;;;;;;;5.07;1.27;;;7.90;99.90;;;;;;5072612;28;20051;-68
2020/12/14 01:48:07;;;;;;;4.82;1.73;;;7.90;99.90;;;;;;5073266;28;20503;-68
2020/12/14 01:50:34;;;;;;;6.07;2.65;;;7.90;99.90;;;;;;5072947;28;20038;-68
2020/12/14 01:53:01;;;;;;;3.25;1.50;;;7.90;99.90;;;;;;5072932;28;20028;-68
2020/12/14 01:55:36;;;;;;;5.28;1.70;;;7.90;99.90;;;;;;5072587;28;20531;-68
2020/12/14 01:58:01;;;;;;;1.73;0.98;;;7.90;99.90;;;;;;5072127;28;20115;-68
2020/12/14 02:00:27;;;;;;;2.13;1.38;;;7.90;99.90;;;;;;5080731;28;20150;-68
2020/12/14 02:02:53;;;;;;;3.50;1.38;;;7.90;99.90;;;;;;5093695;28;20487;-69
2020/12/14 02:05:18;;;;;;;4.10;1.50;;;7.90;99.90;;;;;;5092791;28;20094;-69
2020/12/14 02:07:44;;;;;;;2.65;1.58;;;7.90;99.90;;;;;;5093698;28;20024;-69
2020/12/14 02:10:10;;;;;;;3.42;1.60;;;7.90;99.90;;;;;;5093651;28;20564;-68
2020/12/14 02:12:35;;;;;;;2.75;1.77;;;7.90;99.90;;;;;;5092395;28;20031;-68
2020/12/14 02:15:01;;;;;;;5.53;1.70;;;7.80;99.90;;;;;;5093297;28;20030;-68
2020/12/14 02:17:27;;;;;;;5.47;1.83;;;7.90;99.90;;;;;;5093049;28;20425;-69
2020/12/14 02:19:54;;;;;;;3.90;1.85;;;7.90;99.90;;;;;;5092883;28;20031;-68
2020/12/14 02:22:20;;;;;;;5.32;1.83;;;7.90;99.90;;;;;;5092848;28;20035;-70
2020/12/14 02:25:12;;;;;;;3.42;1.58;;;7.80;99.90;;;;;;5093495;28;20075;-69
2020/12/14 02:27:38;;;;;;;5.63;1.95;;;7.90;99.90;;;;;;5089743;28;20054;-68
2020/12/14 02:30:06;;;;;;;3.30;2.00;;;7.90;99.90;;;;;;5094324;28;20551;-69
2020/12/14 02:32:31;;;;;;;4.70;1.95;;;7.90;99.90;;;;;;5094342;28;20085;-68
2020/12/14 02:34:57;;;;;;;3.78;1.70;;;7.90;99.90;;;;;;5091919;28;20024;-68
2020/12/14 02:37:27;;;;;;;7.05;2.35;;;7.90;99.90;;;;;;5092525;28;20028;-69
2020/12/14 02:39:53;;;;;;;10.40;2.00;;;7.90;99.90;;;;;;5092922;28;20456;-68
2020/12/14 02:42:20;;;;;;;4.82;2.00;;;7.90;99.90;;;;;;5090725;28;20047;-68
2020/12/14 02:44:47;;;;;;;2.70;2.03;;;7.80;99.90;;;;;;5075035;28;20031;-70
2020/12/14 02:47:13;;;;;;;5.72;2.55;;;7.80;99.90;;;;;;5075079;28;20027;-70
2020/12/14 02:49:39;;;;;;;6.88;3.03;;;7.80;99.90;;;;;;5079732;28;20057;-68
2020/12/14 02:52:06;;;;;;;3.65;3.28;;;7.80;99.90;;;;;;5087097;28;20062;-68
2020/12/14 02:54:33;;;;;;;5.28;4.20;;;7.80;99.90;;;;;;5083670;28;20379;-68
2020/12/14 02:56:58;;;;;;;6.47;4.00;;;7.80;99.90;;;;;;5092747;28;20016;-68
2020/12/14 02:59:24;;;;;;;6.25;3.35;;;7.80;99.90;;;;;;5092656;28;20020;-69
2020/12/14 03:01:50;;;;;;;5.95;4.53;;;7.80;99.90;;;;;;5077320;28;20226;-69
2020/12/14 03:04:18;;;;;;;6.53;2.85;;;7.80;99.90;;;;;;5092329;28;20101;-70
2020/12/14 03:06:45;;;;;;;8.82;3.47;;;7.80;99.90;;;;;;5092383;28;20089;-69
2020/12/14 03:09:14;;;;;;;4.95;2.80;;;7.80;99.90;;;;;;5091797;28;20064;-68
2020/12/14 03:11:41;;;;;;;2.97;2.67;;;7.80;99.90;;;;;;5092677;28;20494;-68
2020/12/14 03:14:07;;;;;;;2.60;2.40;;;7.80;99.90;;;;;;5092355;28;20020;-68
2020/12/14 03:16:39;;;;;;;4.68;2.85;;;7.80;99.90;;;;;;5091491;28;20456;-69
2020/12/14 03:19:05;;;;;;;3.88;2.97;;;7.80;99.90;;;;;;5077743;28;20026;-69
2020/12/14 03:21:31;;;;;;;3.15;2.85;;;7.80;99.90;;;;;;5092033;28;20024;-69
2020/12/14 03:23:56;;;;;;;4.75;3.03;;;7.80;99.90;;;;;;5091450;28;20063;-69
2020/12/14 03:26:22;;;;;;;3.47;3.17;;;7.80;99.90;;;;;;5091723;28;20027;-69
2020/12/14 03:28:47;;;;;;;4.82;3.97;;;7.80;99.90;;;;;;5091880;28;20115;-69
2020/12/14 03:31:13;;;;;;;6.78;3.28;;;7.80;99.90;;;;;;5091034;28;20024;-69
2020/12/14 03:33:38;;;;;;;6.20;3.92;;;7.80;99.90;;;;;;5092135;28;20020;-69
2020/12/14 03:36:04;;;;;;;3.92;3.60;;;7.80;99.90;;;;;;5091856;28;20052;-69
2020/12/14 03:38:29;;;;;;;8.15;4.25;;;7.80;99.90;;;;;;5081260;28;20107;-70
2020/12/14 03:40:55;;;;;;;4.88;4.35;;;7.80;99.90;;;;;;5071678;28;20027;-69
2020/12/14 03:43:21;;;;;;;5.40;4.30;;;7.90;99.90;;;;;;5070903;28;20090;-69
2020/12/14 03:45:48;;;;;;;6.13;4.82;;;7.90;99.90;;;;;;5071341;28;20498;-69
2020/12/14 03:48:16;;;;;;;7.28;4.93;;;7.90;99.90;;;;;;5070875;28;20052;-69
2020/12/14 03:50:43;;;;;;;4.80;4.40;;;7.90;99.90;;;;;;5070501;28;20104;-69
2020/12/14 03:53:08;;;;;;;4.82;4.10;;;7.90;99.90;;;;;;5073809;28;20043;-69
2020/12/14 03:55:34;;;;;;;8.82;4.43;;;7.90;99.90;;;;;;5091629;28;20028;-69
2020/12/14 03:58:00;;;;;;;4.15;3.80;;;7.90;99.90;;;;;;5090907;28;20027;-69
2020/12/14 04:00:25;;;;;;;5.95;4.07;;;7.90;99.90;;;;;;5091334;28;20054;-69
2020/12/14 04:02:51;;;;;;;4.60;4.15;;;8.00;99.90;;;;;;5091950;28;20044;-68
2020/12/14 04:05:16;;;;;;;6.55;3.92;;;8.00;99.90;;;;;;5090547;28;20420;-69
2020/12/14 04:07:42;;;;;;;8.20;3.67;;;8.00;99.90;;;;;;5091358;28;20028;-69
2020/12/14 04:10:07;;;;;;;9.00;4.55;;;8.00;99.90;;;;;;5091509;28;20016;-69
2020/12/14 04:12:33;;;;;;;5.03;4.25;;;8.00;99.90;;;;;;5090795;28;20031;-69
2020/12/14 04:14:58;;;;;;;8.43;4.50;;;8.00;99.90;;;;;;5091604;28;20023;-69
2020/12/14 04:17:24;;;;;;;5.88;3.92;;;8.00;99.90;;;;;;5091063;28;20066;-69
2020/12/14 04:19:50;;;;;;;5.63;4.00;;;8.00;99.90;;;;;;5090532;28;20108;-69
2020/12/14 04:22:15;;;;;;;8.35;4.93;;;8.00;99.90;;;;;;5090848;28;20506;-69
2020/12/14 04:24:41;;;;;;;8.98;4.25;;;8.00;99.90;;;;;;5091437;28;20423;-68
2020/12/14 04:27:07;;;;;;;6.22;3.95;;;8.00;99.90;;;;;;5090777;28;20058;-67
2020/12/14 04:29:32;;;;;;;6.72;4.75;;;8.00;99.90;;;;;;5090878;28;20523;-67
2020/12/14 04:31:58;;;;;;;6.00;3.95;;;8.00;99.90;;;;;;5091191;28;20024;-68
2020/12/14 04:34:25;;;;;;;9.68;4.28;;;8.00;99.90;;;;;;5090471;28;20073;-68
2020/12/14 04:36:51;;;;;;;4.32;3.65;;;8.00;99.90;;;;;;5091530;28;20055;-67
2020/12/14 04:39:18;;;;;;;5.55;5.05;;;8.00;99.90;;;;;;5091281;28;20032;-69
2020/12/14 04:41:44;;;;;;;4.18;3.83;;;8.00;99.90;;;;;;5090900;28;20028;-69
2020/12/14 04:44:13;;;;;;;5.10;4.10;;;8.00;99.90;;;;;;5091418;28;20077;-69
2020/12/14 04:46:39;;;;;;;6.18;3.95;;;8.00;99.90;;;;;;5091093;28;20020;-69
2020/12/14 04:49:06;;;;;;;5.28;4.00;;;8.00;99.90;;;;;;5091013;28;20434;-69
2020/12/14 04:51:33;;;;;;;7.90;4.57;;;8.00;99.90;;;;;;5087356;28;20044;-68
2020/12/14 04:54:02;;;;;;;6.28;4.43;;;8.00;99.90;;;;;;5080144;28;20040;-69
2020/12/14 04:56:28;;;;;;;5.13;4.63;;;8.00;99.90;;;;;;5090835;28;20158;-68
2020/12/14 04:58:57;;;;;;;6.32;4.57;;;8.00;99.90;;;;;;5092496;28;20452;-68
2020/12/14 05:01:24;;;;;;;5.18;4.78;;;8.00;99.90;;;;;;5094309;28;20085;-68
2020/12/14 05:03:50;;;;;;;4.90;4.38;;;8.00;99.90;;;;;;5095236;28;20043;-68
2020/12/14 05:06:15;;;;;;;5.25;4.53;;;8.10;99.90;;;;;;5095088;28;20028;-68
2020/12/14 05:08:41;;;;;;;4.70;4.32;;;8.10;99.90;;;;;;5094612;28;20375;-68
2020/12/14 05:11:10;;;;;;;6.53;4.10;;;8.10;99.90;;;;;;5095429;28;20031;-68
2020/12/14 05:13:36;;;;;;;8.30;4.28;;;8.10;99.90;;;;;;5094836;28;20448;-69
2020/12/14 05:16:02;;;;;;;5.22;4.43;;;8.10;99.90;;;;;;5094700;28;20048;-68
2020/12/14 05:18:28;;;;;;;4.80;4.30;;;8.10;99.90;;;;;;5094763;28;20114;-68
2020/12/14 05:21:02;;;;;;;9.05;4.10;;;8.10;99.90;;;;;;5095341;28;20044;-69
2020/12/14 05:23:32;;;;;;;4.60;4.10;;;8.10;99.90;;;;;;5094087;28;20450;-68
2020/12/14 05:26:14;;;;;;;4.50;3.75;;;8.10;99.90;;;;;;5096367;28;20479;-68
2020/12/14 05:28:39;;;;;;;3.80;3.50;;;8.20;99.90;;;;;;5095464;28;20051;-68
2020/12/14 05:31:05;;;;;;;5.75;3.60;;;8.20;99.90;;;;;;5094051;28;20456;-68
2020/12/14 05:33:32;;;;;;;6.47;3.55;;;8.30;99.90;;;;;;5094645;28;20028;-67
2020/12/14 05:35:58;;;;;;;4.53;3.95;;;8.30;99.90;;;;;;5093947;28;20103;-68
2020/12/14 05:38:31;;;;;;;5.53;4.28;;;8.30;99.90;;;;;;5094479;28;20112;-68
2020/12/14 05:41:03;;;;;;;7.13;3.70;;;8.30;99.90;;;;;;5094623;28;20020;-68
2020/12/14 05:43:31;;;;;;;5.40;3.08;;;8.40;99.90;;;;;;5093438;28;20036;-69
2020/12/14 05:46:09;;;;;;;6.05;3.50;;;8.30;99.90;;;;;;5094255;28;20081;-69
2020/12/14 05:48:35;;;;;;;6.68;2.80;;;8.40;99.90;;;;;;5094270;28;20031;-69
2020/12/14 05:51:03;;;;;;;3.05;2.85;;;8.40;99.90;;;;;;5093337;28;20020;-68
2020/12/14 05:53:53;;;;;;;3.60;3.28;;;8.50;99.90;;;;;;5079211;28;20087;-69
2020/12/14 05:56:18;;;;;;;7.80;2.85;;;8.50;99.90;;;;;;5093275;28;20024;-67
2020/12/14 05:58:48;;;;;;;5.55;2.95;;;8.50;99.90;;;;;;5093651;28;20486;-67
2020/12/14 06:01:15;;;;;;;6.28;2.83;;;8.50;99.90;;;;;;5093872;28;20547;-68
2020/12/14 06:03:40;;;;;;;5.18;2.80;;;8.50;99.90;;;;;;5094233;28;20039;-68
2020/12/14 06:06:13;;;;;;;6.32;3.53;;;8.60;99.90;;;;;;5093929;28;20094;-68
2020/12/14 06:08:41;;;;;;;3.47;2.95;;;8.60;99.90;;;;;;5094224;28;20024;-68
2020/12/14 06:11:07;;;;;;;6.00;3.40;;;8.60;99.90;;;;;;5093764;28;20365;-68
2020/12/14 06:13:42;;;;;;;7.00;3.05;;;8.60;99.90;;;;;;5094171;28;20032;-68
2020/12/14 06:16:11;;;;;;;4.13;3.30;;;8.60;99.90;;;;;;5094375;28;20031;-68
2020/12/14 06:18:37;;;;;;;5.40;3.42;;;8.60;99.90;;;;;;5093004;28;20024;-68
2020/12/14 06:21:03;;;;;;;4.15;2.83;;;8.60;99.90;;;;;;5093748;28;20483;-68
2020/12/14 06:23:36;;;;;;;3.53;3.25;;;8.70;99.90;;;;;;5093407;28;20078;-69
2020/12/14 06:26:07;;;;;;;5.13;3.58;;;8.60;99.90;;;;;;5093158;28;20107;-68
2020/12/14 06:28:34;;;;;;;3.25;3.00;;;8.70;99.90;;;;;;5078994;28;20500;-69
2020/12/14 06:31:00;;;;;;;3.53;3.22;;;8.70;99.90;;;;;;5093452;28;20097;-69
2020/12/14 06:33:39;;;;;;;5.97;3.25;;;8.70;99.90;;;;;;5091697;28;20391;-69
2020/12/14 06:36:22;;;;;;;3.92;3.28;;;8.70;99.90;;;;;;5088991;28;20028;-69
2020/12/14 06:38:52;;;;;;;4.50;3.30;;;8.70;99.90;;;;;;5089147;28;20028;-69
2020/12/14 06:41:20;;;;;;;5.95;3.50;;;8.70;99.90;;;;;;5085836;28;20024;-68
2020/12/14 06:43:49;;;;;;;3.55;3.28;;;8.80;99.90;;;;;;5089732;28;20031;-68
2020/12/14 06:46:26;;;;;;;4.00;3.25;;;8.70;99.90;;;;;;5079490;28;20055;-68
2020/12/14 06:48:53;;;;;;;4.10;3.63;;;8.80;99.90;;;;;;5089757;28;20024;-68
2020/12/14 06:51:19;;;;;;;4.38;3.78;;;8.80;99.90;;;;;;5089760;28;20020;-68
2020/12/14 06:53:52;;;;;;;8.25;3.75;;;8.80;99.90;;;;;;5089493;28;20031;-68
2020/12/14 06:56:40;;;;;;;4.80;3.88;;;8.90;99.90;;;;;;5089804;28;20172;-69
2020/12/14 06:59:31;;;;;;;5.10;3.80;;;8.90;99.90;;;;;;5087246;28;20016;-68
2020/12/14 07:02:03;;;;;;;;;;;8.90;99.90;;;;;;5088565;28;20028;-68
2020/12/14 07:04:29;;;;;;;5.50;3.83;;;8.90;99.90;;;;;;5091187;28;20002;-68
2020/12/14 07:06:55;;;;;;;7.35;4.15;;;8.90;99.90;;;;;;5090364;28;20511;-69
2020/12/14 07:09:29;;;;;;;5.18;4.07;;;9.00;99.90;;;;;;5090381;28;20518;-69
2020/12/14 07:12:15;;;;;;;9.32;4.45;;;9.00;99.90;;;;;;5089060;28;20028;-69
2020/12/14 07:14:48;;;;;;;5.50;4.00;;;9.00;99.90;;;;;;5090340;28;20103;-69
2020/12/14 07:17:24;;;;;;;8.55;4.95;;;9.10;99.90;;;;;;5090487;28;20020;-68
2020/12/14 07:19:51;;;;;;;4.88;4.47;;;9.10;99.90;;;;;;5090597;28;20020;-68
2020/12/14 07:22:24;;;;;;;5.05;4.38;;;9.10;99.90;;;;;;5086896;28;20064;-68
2020/12/14 07:25:01;;;;;;;5.10;4.70;;;9.10;99.90;;;;;;5087068;28;20025;-68
2020/12/14 07:27:28;;;;;;;6.85;4.80;;;9.20;99.90;;;;;;5085213;28;20032;-69
2020/12/14 07:30:10;;;;;;;4.82;4.32;;;9.20;99.90;;;;;;5083211;28;20063;-69
2020/12/14 07:32:36;;;;;;;6.13;4.30;;;9.20;99.90;;;;;;5087628;28;20020;-69
2020/12/14 07:35:06;;;;;;;5.85;4.40;;;9.30;99.90;;;;;;5089715;28;20103;-67
2020/12/14 07:37:32;;;;;;;10.20;4.63;;;9.30;99.90;;;;;;5085099;28;20028;-68
2020/12/14 07:39:58;;;;;;;4.82;4.30;;;9.40;99.90;;;;;;5088775;28;20254;-68
2020/12/14 07:42:28;;;;;;;4.70;4.30;;;9.40;99.90;;;;;;5086877;28;20502;-68
2020/12/14 07:45:14;;;;;;;4.55;3.92;;;9.40;99.90;;;;;;5089161;28;20020;-68
2020/12/14 07:47:41;;;;;;;6.35;4.90;;;9.40;99.90;;;;;;5082236;28;20462;-69
2020/12/14 07:50:15;;;;;;;7.90;4.25;;;9.40;99.90;;;;;;5085503;28;20028;-68
2020/12/14 07:52:42;;;;;;;8.70;4.50;;;9.50;99.90;;;;;;5084498;28;20020;-67
2020/12/14 07:55:10;;;;;;;4.95;4.45;;;9.50;99.90;;;;;;5089285;28;20070;-68
2020/12/14 07:57:38;;;;;;;5.63;5.13;;;9.50;99.90;;;;;;5084644;28;20104;-68
2020/12/14 08:00:08;;;;;;;5.30;4.90;;;9.50;99.90;;;;;;5090876;28;20409;-68
2020/12/14 08:02:34;;;;;;;;;;;9.50;99.90;;;;;;5091887;28;20035;-67
2020/12/14 08:05:14;;;;;;;4.95;4.55;;;9.50;99.90;;;;;;5086390;28;19904;-67
2020/12/14 08:07:50;;;;;;;8.35;5.35;;;9.60;99.90;;;;;;5088274;28;20032;-67
2020/12/14 08:10:20;;;;;;;5.80;5.30;;;9.60;99.90;;;;;;5085435;28;20044;-68
2020/12/14 08:12:47;;;;;;;7.47;4.88;;;9.60;99.90;;;;;;5089608;28;20024;-67
2020/12/14 08:15:19;;;;;;;7.35;5.72;;;9.60;99.90;;;;;;5075416;28;20017;-67
2020/12/14 08:17:45;;;;;;;6.70;5.65;;;9.70;99.90;;;;;;5074548;28;20042;-68
2020/12/14 08:20:28;;;;;;;6.15;5.63;;;9.70;99.90;;;;;;5086186;28;20409;-67
2020/12/14 08:22:56;;;;;;;7.15;5.60;;;9.70;99.90;;;;;;5082601;28;20044;-68
2020/12/14 08:25:27;;;;;;;9.05;5.70;;;9.70;99.90;;;;;;5070699;28;20099;-67
2020/12/14 08:28:03;;;;;;;6.43;5.82;;;9.70;99.90;;;;;;5071889;28;20032;-68
2020/12/14 08:30:31;;;;;;;6.05;5.45;;;9.70;99.90;;;;;;5073535;28;20488;-68
2020/12/14 08:33:12;;;;;;;7.00;5.47;;;9.80;99.90;;;;;;5081801;28;20055;-67
2020/12/14 08:35:45;;;;;;;;;;;9.70;99.90;;;;;;5088356;28;20464;-68
2020/12/14 08:38:14;;;;;;;6.78;4.97;;;9.70;99.90;;;;;;5082141;28;19905;-67
2020/12/14 08:40:49;;;;;;;5.15;4.65;;;9.80;99.90;;;;;;5070300;28;20435;-67
2020/12/14 08:43:16;;;;;;;6.10;5.50;;;9.80;99.90;;;;;;5070983;28;20028;-68
2020/12/14 08:46:02;;;;;;;6.70;5.90;;;9.80;99.90;;;;;;5083108;28;20027;-68
2020/12/14 08:48:40;;;;;;;6.75;5.68;;;9.90;99.90;;;;;;5088166;28;20028;-68
2020/12/14 08:51:26;;;;;;;6.70;5.82;;;9.90;99.90;;;;;;5073126;28;20104;-68
2020/12/14 08:53:54;;;;;;;5.32;4.63;;;9.90;99.90;;;;;;5068019;28;20032;-68
2020/12/14 08:56:22;;;;;;;6.90;5.22;;;10.00;99.90;;;;;;5091211;28;20047;-68
2020/12/14 08:58:53;;;;;;;5.60;5.20;;;10.00;99.90;;;;;;5091313;28;20020;-68
2020/12/14 09:01:20;;;;;;;5.75;5.07;;;10.00;99.90;;;;;;5082170;28;20058;-67
2020/12/14 09:03:54;;;;;;;4.72;4.32;;;10.00;99.90;;;;;;5070990;28;20170;-68
2020/12/14 09:06:35;;;;;;;7.13;4.93;;;10.10;99.90;;;;;;5071058;28;20078;-67
2020/12/14 09:09:12;;;;;;;7.10;5.30;;;10.10;99.90;;;;;;5070303;28;20021;-68
2020/12/14 09:11:46;;;;;;;5.53;5.03;;;10.10;99.90;;;;;;5071269;28;20130;-68
2020/12/14 09:14:25;;;;;;;5.65;5.10;;;10.20;99.90;;;;;;5070301;28;20074;-68
2020/12/14 09:16:53;;;;;;;5.53;5.03;;;10.20;99.90;;;;;;5071197;28;20380;-68
2020/12/14 09:19:23;;;;;;;6.47;4.75;;;10.30;99.90;;;;;;5070722;28;20021;-68
2020/12/14 09:21:49;;;;;;;5.28;4.78;;;10.30;99.90;;;;;;5070264;28;20046;-67
2020/12/14 09:24:16;;;;;;;5.28;4.78;;;10.40;99.90;;;;;;5070912;28;20086;-67
2020/12/14 09:26:44;;;;;;;5.07;4.68;;;10.40;99.90;;;;;;5071170;28;20103;-68
2020/12/14 09:29:10;;;;;;;4.78;4.38;;;10.40;99.90;;;;;;5069744;28;20408;-68
2020/12/14 09:31:36;;;;;;;5.63;4.70;;;10.40;99.90;;;;;;5070901;28;20116;-67
2020/12/14 09:34:02;;;;;;;4.43;4.07;;;10.40;99.90;;;;;;5070870;28;20036;-68
2020/12/14 09:36:28;;;;;;;4.55;4.22;;;10.50;99.90;;;;;;5070053;28;20032;-68
2020/12/14 09:38:54;;;;;;;5.78;4.47;;;10.50;99.90;;;;;;5070928;28;20075;-67
2020/12/14 09:41:21;;;;;;;6.32;4.75;;;10.50;99.90;;;;;;5082094;28;20020;-67
2020/12/14 09:43:47;;;;;;;4.10;3.80;;;10.60;99.90;;;;;;5071139;28;20033;-67
2020/12/14 09:46:12;;;;;;;4.30;3.90;;;10.60;99.90;;;;;;5090660;28;20116;-67
2020/12/14 09:48:40;;;;;;;4.75;3.67;;;10.70;99.90;;;;;;5077119;28;20080;-68
2020/12/14 09:51:06;;;;;;;4.07;3.78;;;10.70;99.90;;;;;;5091407;28;20045;-66
2020/12/14 09:53:32;;;;;;;4.55;3.90;;;10.70;99.90;;;;;;5073672;28;20373;-68
2020/12/14 09:55:58;;;;;;;4.00;3.67;;;10.70;99.90;;;;;;5074445;28;20038;-68
2020/12/14 09:58:23;;;;;;;4.40;3.97;;;10.70;99.90;;;;;;5072765;28;20025;-68
2020/12/14 10:00:49;;;;;;;4.18;3.47;;;10.80;99.90;;;;;;5074149;28;20021;-68
2020/12/14 10:03:14;;;;;;;3.85;3.55;;;10.80;99.90;;;;;;5073144;28;20036;-68
2020/12/14 10:05:47;;;;;;;4.68;4.28;;;10.80;99.90;;;;;;5074082;28;20017;-68
2020/12/14 10:08:13;;;;;;;4.05;3.75;;;10.80;99.90;;;;;;5073872;28;20036;-67
2020/12/14 10:10:39;;;;;;;3.92;3.72;;;10.90;99.90;;;;;;5066603;28;20016;-68
2020/12/14 10:13:05;;;;;;;4.10;3.80;;;10.90;99.90;;;;;;5074032;28;20352;-70
2020/12/14 10:15:33;;;;;;;4.65;3.80;;;10.90;99.90;;;;;;5073688;28;20058;-68
2020/12/14 10:17:59;;;;;;;3.83;3.53;;;10.90;99.90;;;;;;5072832;28;20479;-68
2020/12/14 10:20:24;;;;;;;4.03;3.72;;;10.90;99.90;;;;;;5073499;28;20025;-67
2020/12/14 10:22:50;;;;;;;4.43;4.03;;;10.90;99.90;;;;;;5073321;28;20481;-68
2020/12/14 10:25:15;;;;;;;6.57;3.42;;;11.00;99.90;;;;;;5072516;28;20013;-68
2020/12/14 10:27:41;;;;;;;4.13;3.78;;;11.00;99.90;;;;;;5073877;28;20052;-68
2020/12/14 10:30:06;;;;;;;4.10;3.80;;;11.00;99.90;;;;;;5073313;28;20040;-67
2020/12/14 10:32:32;;;;;;;4.43;4.03;;;11.00;99.90;;;;;;5072558;28;20186;-67
2020/12/14 10:34:58;;;;;;;5.78;3.92;;;11.10;99.90;;;;;;5073438;28;20025;-68
2020/12/14 10:37:24;;;;;;;6.07;3.92;;;11.10;99.90;;;;;;5073107;28;20028;-68
2020/12/14 10:39:50;;;;;;;4.47;3.70;;;11.10;99.90;;;;;;5072456;28;20025;-68
2020/12/14 10:42:15;;;;;;;4.30;3.97;;;11.10;99.90;;;;;;5084433;28;20028;-69
2020/12/14 10:44:41;;;;;;;4.05;3.70;;;11.20;99.90;;;;;;5073566;28;20025;-69
2020/12/14 10:47:07;;;;;;;3.85;3.60;;;11.20;99.90;;;;;;5072649;28;20417;-69
2020/12/14 10:49:33;;;;;;;4.28;3.85;;;11.30;99.90;;;;;;5072869;28;20035;-68
2020/12/14 10:52:01;;;;;;;5.07;4.40;;;11.30;99.90;;;;;;5072916;28;20464;-67
2020/12/14 10:54:28;;;;;;;4.43;3.63;;;11.40;99.90;;;;;;5085701;28;20341;-67
2020/12/14 10:56:53;;;;;;;3.85;3.55;;;11.50;99.90;;;;;;5091940;28;20103;-67
2020/12/14 10:59:19;;;;;;;5.35;3.90;;;11.50;99.90;;;;;;5093180;28;20116;-67
2020/12/14 11:01:50;;;;;;;4.32;3.92;;;11.40;99.90;;;;;;5092372;28;20052;-68
2020/12/14 11:04:15;;;;;;;3.90;3.60;;;11.40;99.90;;;;;;5091856;28;20146;-69
2020/12/14 11:06:41;;;;;;;4.70;4.22;;;11.40;99.90;;;;;;5087207;28;20100;-68
2020/12/14 11:09:09;;;;;;;5.03;3.92;;;11.40;99.90;;;;;;5090042;28;20916;-68
2020/12/14 11:11:35;;;;;;;6.20;4.10;;;11.40;99.90;;;;;;5085289;28;20043;-66
2020/12/14 11:14:01;;;;;;;6.57;5.00;;;11.40;99.90;;;;;;5089632;28;20024;-67
2020/12/14 11:16:27;;;;;;;4.32;3.92;;;11.50;99.90;;;;;;5090356;28;20576;-68
2020/12/14 11:18:54;;;;;;;4.57;4.25;;;11.50;99.90;;;;;;5090138;28;20032;-67
2020/12/14 11:21:21;;;;;;;5.47;3.80;;;11.50;99.90;;;;;;5090772;28;20146;-67
2020/12/14 11:23:47;;;;;;;6.78;4.20;;;11.50;99.90;;;;;;5091819;28;20047;-67
2020/12/14 11:26:12;;;;;;;5.93;4.05;;;11.50;99.90;;;;;;5088822;28;20016;-67
2020/12/14 11:28:39;;;;;;;4.85;4.45;;;11.50;99.90;;;;;;5087612;28;20357;-67
2020/12/14 11:31:06;;;;;;;5.45;3.90;;;11.60;99.90;;;;;;5083641;28;20045;-67
2020/12/14 11:33:32;;;;;;;5.55;4.00;;;11.60;99.90;;;;;;5070545;28;20400;-66
2020/12/14 11:35:57;;;;;;;4.40;3.97;;;11.60;99.90;;;;;;5073683;28;20052;-68
2020/12/14 11:38:23;;;;;;;4.50;4.07;;;11.60;99.90;;;;;;5084101;28;20066;-68
2020/12/14 11:40:48;;;;;;;4.57;4.22;;;11.70;99.90;;;;;;5074772;28;20017;-67
2020/12/14 11:43:14;;;;;;;5.90;3.78;;;11.60;99.90;;;;;;5078525;28;20032;-67
2020/12/14 11:45:39;;;;;;;7.47;4.20;;;11.60;99.90;;;;;;5087075;28;20046;-67
2020/12/14 11:48:05;;;;;;;6.75;4.40;;;11.60;99.90;;;;;;5083025;28;20039;-67
2020/12/14 11:50:32;;;;;;;4.68;4.25;;;11.60;99.90;;;;;;5072658;28;20357;-67
2020/12/14 11:52:57;;;;;;;5.10;4.03;;;11.60;99.90;;;;;;5085981;28;20146;-67
2020/12/14 11:55:23;;;;;;;4.95;4.35;;;11.60;99.90;;;;;;5082644;28;20118;-67
2020/12/14 11:57:49;;;;;;;4.68;4.15;;;11.60;99.90;;;;;;5071378;28;20032;-67
2020/12/14 12:00:15;;;;;;;5.18;4.00;;;11.70;99.90;;;;;;5070954;28;20029;-67
2020/12/14 12:02:40;;;;;;;5.47;4.00;;;11.70;99.90;;;;;;5071481;28;20032;-67
2020/12/14 12:05:06;;;;;;;5.93;3.63;;;11.70;99.90;;;;;;5088063;28;20016;-67
2020/12/14 12:07:31;;;;;;;7.82;4.70;;;11.70;99.90;;;;;;5071375;28;20024;-67
2020/12/14 12:09:57;;;;;;;6.22;3.70;;;11.70;99.90;;;;;;5072831;28;20028;-69
2020/12/14 12:12:23;;;;;;;5.78;3.90;;;11.70;99.90;;;;;;5087382;28;20119;-67
2020/12/14 12:14:48;;;;;;;3.72;3.42;;;11.70;99.90;;;;;;5080981;28;20346;-69
2020/12/14 12:17:14;;;;;;;5.00;4.03;;;11.80;99.90;;;;;;5078049;28;20023;-67
2020/12/14 12:19:39;;;;;;;5.03;3.50;;;11.80;99.90;;;;;;5088706;28;20023;-67
2020/12/14 12:22:05;;;;;;;4.13;3.72;;;11.90;99.90;;;;;;5088265;28;20472;-67
2020/12/14 12:24:30;;;;;;;4.03;3.67;;;12.00;99.90;;;;;;5085324;28;20382;-67
2020/12/14 12:26:56;;;;;;;4.45;3.75;;;12.00;99.90;;;;;;5089020;28;20078;-68
2020/12/14 12:29:22;;;;;;;4.57;3.80;;;12.00;99.90;;;;;;5088063;28;20442;-67
2020/12/14 12:31:52;;;;;;;4.18;3.88;;;12.00;99.90;;;;;;5088406;28;20537;-67
2020/12/14 12:34:18;;;;;;;3.92;3.63;;;11.90;99.90;;;;;;5090093;28;20039;-67
2020/12/14 12:36:57;;;;;;;4.70;4.28;;;11.90;99.90;;;;;;5090388;28;20526;-68
2020/12/14 12:39:22;;;;;;;5.10;4.50;;;11.80;99.90;;;;;;5084313;28;20028;-68
2020/12/14 12:41:50;;;;;;;4.50;4.10;;;11.80;99.90;;;;;;5072084;28;20410;-68
2020/12/14 12:44:16;;;;;;;5.22;4.35;;;11.80;99.90;;;;;;5070935;28;20403;-68
2020/12/14 12:46:42;;;;;;;4.93;4.50;;;11.80;99.90;;;;;;5070982;28;20046;-68
2020/12/14 12:49:09;;;;;;;7.15;4.32;;;11.80;99.90;;;;;;5071560;28;20029;-68
2020/12/14 12:51:34;;;;;;;4.60;4.07;;;11.80;99.90;;;;;;5071183;28;20016;-68
2020/12/14 12:54:01;;;;;;;7.65;4.40;;;11.70;99.90;;;;;;5080474;28;20035;-68
2020/12/14 12:56:27;;;;;;;5.47;4.70;;;11.80;99.90;;;;;;5091223;28;20103;-68
2020/12/14 12:58:53;;;;;;;7.32;4.57;;;11.70;99.90;;;;;;5091709;28;20028;-68